sensor_id;sensor_type;location;lat;lon;timestamp;temperature;humidity
18773;DHT22;9515;50.810;4.418;2023-01-15T09:15:15;8.80;99.90
18773;DHT22;9515;50.810;4.418;2023-01-15T09:17:40;8.50;99.90
18773;DHT22;9515;50.810;4.418;2023-01-15T09:20:09;8.90;99.90
18773;DHT22;9515;50.810;4.418;2023-01-15T09:22:35;9.00;99.90
18773;DHT22;9515;50.810;4.418;2023-01-15T09:25:01;9.30;99.90
18773;DHT22;9515;50.810;4.418;2023-01-15T09:27:27;9.40;99.90
18773;DHT22;9515;50.810;4.418;2023-01-15T09:29:53;9.60;99.90
18773;DHT22;9515;50.810;4.418;2023-01-15T09:32:19;9.90;99.90
18773;DHT22;9515;50.810;4.418;2023-01-15T09:34:45;9.60;99.90
18773;DHT22;9515;50.810;4.418;2023-01-15T09:37:10;9.20;99.90
18773;DHT22;9515;50.810;4.418;2023-01-15T09:39:37;9.00;99.90
18773;DHT22;9515;50.810;4.418;2023-01-15T09:47:36;8.40;99.90
18773;DHT22;9515;50.810;4.418;2023-01-15T09:50:24;8.10;99.90
18773;DHT22;9515;50.810;4.418;2023-01-15T09:55:49;7.70;99.90
18773;DHT22;9515;50.810;4.418;2023-01-15T09:58:21;7.60;99.90
18773;DHT22;9515;50.810;4.418;2023-01-15T10:00:49;7.60;99.90
18773;DHT22;9515;50.810;4.418;2023-01-15T10:05:55;7.90;99.90
18773;DHT22;9515;50.810;4.418;2023-01-15T10:08:26;8.00;99.90
18773;DHT22;9515;50.810;4.418;2023-01-15T10:11:43;8.10;99.90
18773;DHT22;9515;50.810;4.418;2023-01-15T10:14:11;8.40;99.90
18773;DHT22;9515;50.810;4.418;2023-01-15T10:16:40;8.30;99.90
18773;DHT22;9515;50.810;4.418;2023-01-15T10:19:08;8.00;99.90
18773;DHT22;9515;50.810;4.418;2023-01-15T10:21:57;8.10;99.90
18773;DHT22;9515;50.810;4.418;2023-01-15T10:24:39;8.10;99.90
18773;DHT22;9515;50.810;4.418;2023-01-15T10:27:21;7.90;99.90
18773;DHT22;9515;50.810;4.418;2023-01-15T10:29:54;7.90;99.90
18773;DHT22;9515;50.810;4.418;2023-01-15T10:43:27;8.20;99.90
18773;DHT22;9515;50.810;4.418;2023-01-15T10:46:17;9.10;99.90
18773;DHT22;9515;50.810;4.418;2023-01-15T10:48:51;10.50;99.90
18773;DHT22;9515;50.810;4.418;2023-01-15T10:51:26;11.70;99.90
18773;DHT22;9515;50.810;4.418;2023-01-15T10:54:04;12.50;99.90
18773;DHT22;9515;50.810;4.418;2023-01-15T10:59:55;12.90;99.90
18773;DHT22;9515;50.810;4.418;2023-01-15T11:04:50;11.10;99.90
18773;DHT22;9515;50.810;4.418;2023-01-15T11:07:16;11.30;99.90
18773;DHT22;9515;50.810;4.418;2023-01-15T11:09:42;11.30;99.90
18773;DHT22;9515;50.810;4.418;2023-01-15T11:12:24;11.50;99.90
18773;DHT22;9515;50.810;4.418;2023-01-15T11:14:51;11.40;99.90
18773;DHT22;9515;50.810;4.418;2023-01-15T11:17:43;11.50;99.90
18773;DHT22;9515;50.810;4.418;2023-01-15T11:20:42;10.80;99.90
18773;DHT22;9515;50.810;4.418;2023-01-15T11:23:11;10.50;99.90
18773;DHT22;9515;50.810;4.418;2023-01-15T11:25:38;10.60;99.90
18773;DHT22;9515;50.810;4.418;2023-01-15T11:28:09;10.00;99.90
18773;DHT22;9515;50.810;4.418;2023-01-15T11:30:40;9.10;99.90
18773;DHT22;9515;50.810;4.418;2023-01-15T11:33:23;8.80;99.90
18773;DHT22;9515;50.810;4.418;2023-01-15T11:35:54;8.60;99.90
18773;DHT22;9515;50.810;4.418;2023-01-15T11:38:25;8.90;99.90
18773;DHT22;9515;50.810;4.418;2023-01-15T11:40:54;9.00;99.90
18773;DHT22;9515;50.810;4.418;2023-01-15T11:43:23;9.10;99.90
18773;DHT22;9515;50.810;4.418;2023-01-15T11:46:28;9.30;99.90
18773;DHT22;9515;50.810;4.418;2023-01-15T11:49:18;9.30;99.90
18773;DHT22;9515;50.810;4.418;2023-01-15T11:52:17;9.40;99.90
18773;DHT22;9515;50.810;4.418;2023-01-15T11:54:49;9.20;99.90
18773;DHT22;9515;50.810;4.418;2023-01-15T11:57:27;9.10;99.90
18773;DHT22;9515;50.810;4.418;2023-01-15T11:59:55;9.30;99.90
18773;DHT22;9515;50.810;4.418;2023-01-15T12:02:39;9.40;99.90
18773;DHT22;9515;50.810;4.418;2023-01-15T12:05:19;9.40;99.90
18773;DHT22;9515;50.810;4.418;2023-01-15T12:07:48;8.90;99.90
18773;DHT22;9515;50.810;4.418;2023-01-15T12:10:27;8.80;99.90
18773;DHT22;9515;50.810;4.418;2023-01-15T12:13:34;8.70;99.90
18773;DHT22;9515;50.810;4.418;2023-01-15T12:21:56;8.60;99.90
18773;DHT22;9515;50.810;4.418;2023-01-15T12:27:34;8.60;99.90
18773;DHT22;9515;50.810;4.418;2023-01-15T12:30:18;8.80;99.90
18773;DHT22;9515;50.810;4.418;2023-01-15T12:32:54;8.90;99.90
18773;DHT22;9515;50.810;4.418;2023-01-15T12:37:54;8.80;99.90
18773;DHT22;9515;50.810;4.418;2023-01-15T12:40:37;8.70;99.90
18773;DHT22;9515;50.810;4.418;2023-01-15T12:43:14;8.80;99.90
18773;DHT22;9515;50.810;4.418;2023-01-15T12:46:01;8.80;99.90
18773;DHT22;9515;50.810;4.418;2023-01-15T12:48:48;8.70;99.90
18773;DHT22;9515;50.810;4.418;2023-01-15T12:51:22;8.90;99.90
18773;DHT22;9515;50.810;4.418;2023-01-15T12:54:02;8.90;99.90
18773;DHT22;9515;50.810;4.418;2023-01-15T12:59:21;9.00;99.90
18773;DHT22;9515;50.810;4.418;2023-01-15T13:01:58;8.90;99.90
18773;DHT22;9515;50.810;4.418;2023-01-15T13:04:41;8.90;99.90
18773;DHT22;9515;50.810;4.418;2023-01-15T13:10:26;8.90;99.90
18773;DHT22;9515;50.810;4.418;2023-01-15T13:13:21;9.00;99.90
18773;DHT22;9515;50.810;4.418;2023-01-15T13:16:02;9.10;99.90
18773;DHT22;9515;50.810;4.418;2023-01-15T13:18:51;9.00;99.90
18773;DHT22;9515;50.810;4.418;2023-01-15T13:21:19;8.80;99.90
18773;DHT22;9515;50.810;4.418;2023-01-15T13:23:55;8.90;99.90
18773;DHT22;9515;50.810;4.418;2023-01-15T13:29:39;8.90;99.90
18773;DHT22;9515;50.810;4.418;2023-01-15T13:32:15;9.00;99.90
18773;DHT22;9515;50.810;4.418;2023-01-15T13:40:33;8.80;99.90
18773;DHT22;9515;50.810;4.418;2023-01-15T13:43:01;8.90;99.90
18773;DHT22;9515;50.810;4.418;2023-01-15T13:45:41;8.80;99.90
18773;DHT22;9515;50.810;4.418;2023-01-15T13:51:03;8.70;99.90
18773;DHT22;9515;50.810;4.418;2023-01-15T13:53:56;8.70;99.90
18773;DHT22;9515;50.810;4.418;2023-01-15T13:56:29;8.40;99.90
18773;DHT22;9515;50.810;4.418;2023-01-15T13:58:58;8.30;99.90
18773;DHT22;9515;50.810;4.418;2023-01-15T14:01:31;8.30;99.90
18773;DHT22;9515;50.810;4.418;2023-01-15T14:06:50;8.20;99.90
18773;DHT22;9515;50.810;4.418;2023-01-15T14:33:54;7.80;99.90
18773;DHT22;9515;50.810;4.418;2023-01-15T14:36:29;7.90;99.90
18773;DHT22;9515;50.810;4.418;2023-01-15T14:39:00;7.80;99.90
18773;DHT22;9515;50.810;4.418;2023-01-15T14:41:29;7.80;99.90
18773;DHT22;9515;50.810;4.418;2023-01-15T14:43:57;7.70;99.90
18773;DHT22;9515;50.810;4.418;2023-01-15T14:48:52;7.90;99.90
18773;DHT22;9515;50.810;4.418;2023-01-15T14:51:27;8.10;99.90
18773;DHT22;9515;50.810;4.418;2023-01-15T14:54:09;8.20;99.90
18773;DHT22;9515;50.810;4.418;2023-01-15T14:56:55;8.20;99.90
18773;DHT22;9515;50.810;4.418;2023-01-15T14:59:25;8.00;99.90
18773;DHT22;9515;50.810;4.418;2023-01-15T15:02:04;7.90;99.90
18773;DHT22;9515;50.810;4.418;2023-01-15T15:07:03;8.10;99.90
18773;DHT22;9515;50.810;4.418;2023-01-15T15:15:34;7.60;99.90
18773;DHT22;9515;50.810;4.418;2023-01-15T15:18:12;7.70;99.90
18773;DHT22;9515;50.810;4.418;2023-01-15T15:24:10;7.90;99.90
18773;DHT22;9515;50.810;4.418;2023-01-15T15:26:30;7.80;99.90
18773;DHT22;9515;50.810;4.418;2023-01-15T15:29:04;7.50;99.90
18773;DHT22;9515;50.810;4.418;2023-01-15T15:31:42;7.50;99.90
18773;DHT22;9515;50.810;4.418;2023-01-15T15:34:25;7.50;99.90
18773;DHT22;9515;50.810;4.418;2023-01-15T15:36:51;7.60;99.90
18773;DHT22;9515;50.810;4.418;2023-01-15T15:39:34;7.50;99.90
18773;DHT22;9515;50.810;4.418;2023-01-15T15:42:09;7.50;99.90
18773;DHT22;9515;50.810;4.418;2023-01-15T15:44:58;7.50;99.90
18773;DHT22;9515;50.810;4.418;2023-01-15T15:47:43;7.50;99.90
18773;DHT22;9515;50.810;4.418;2023-01-15T15:50:36;7.40;99.90
18773;DHT22;9515;50.810;4.418;2023-01-15T15:53:01;7.50;99.90
18773;DHT22;9515;50.810;4.418;2023-01-15T15:55:40;7.60;99.90
18773;DHT22;9515;50.810;4.418;2023-01-15T15:58:07;7.80;99.90
18773;DHT22;9515;50.810;4.418;2023-01-15T16:00:39;7.80;99.90
18773;DHT22;9515;50.810;4.418;2023-01-15T16:03:26;7.70;99.90
18773;DHT22;9515;50.810;4.418;2023-01-15T16:06:06;7.60;99.90
18773;DHT22;9515;50.810;4.418;2023-01-15T16:08:34;7.50;99.90
18773;DHT22;9515;50.810;4.418;2023-01-15T16:11:09;7.50;99.90
18773;DHT22;9515;50.810;4.418;2023-01-15T16:13:47;7.40;99.90
18773;DHT22;9515;50.810;4.418;2023-01-15T16:16:13;7.50;99.90
18773;DHT22;9515;50.810;4.418;2023-01-15T16:18:48;7.40;99.90
18773;DHT22;9515;50.810;4.418;2023-01-15T16:21:33;7.50;99.90
18773;DHT22;9515;50.810;4.418;2023-01-15T16:24:26;7.60;99.90
18773;DHT22;9515;50.810;4.418;2023-01-15T16:27:06;7.60;99.90
18773;DHT22;9515;50.810;4.418;2023-01-15T16:29:34;7.40;99.90
18773;DHT22;9515;50.810;4.418;2023-01-15T16:32:08;7.40;99.90
18773;DHT22;9515;50.810;4.418;2023-01-15T16:34:34;7.60;99.90
18773;DHT22;9515;50.810;4.418;2023-01-15T16:37:01;7.70;99.90
18773;DHT22;9515;50.810;4.418;2023-01-15T16:39:39;7.70;99.90
18773;DHT22;9515;50.810;4.418;2023-01-15T16:44:53;8.20;99.90
18773;DHT22;9515;50.810;4.418;2023-01-15T16:47:25;8.30;99.90
18773;DHT22;9515;50.810;4.418;2023-01-15T16:49:51;8.10;99.90
18773;DHT22;9515;50.810;4.418;2023-01-15T17:00:49;8.40;99.90
18773;DHT22;9515;50.810;4.418;2023-01-15T17:05:48;8.10;99.90
18773;DHT22;9515;50.810;4.418;2023-01-15T17:08:18;7.80;99.90
18773;DHT22;9515;50.810;4.418;2023-01-15T17:10:53;8.00;99.90
18773;DHT22;9515;50.810;4.418;2023-01-15T17:13:20;8.10;99.90
18773;DHT22;9515;50.810;4.418;2023-01-15T17:15:46;8.00;99.90
18773;DHT22;9515;50.810;4.418;2023-01-15T17:18:28;8.20;99.90
18773;DHT22;9515;50.810;4.418;2023-01-15T17:20:54;8.00;99.90
18773;DHT22;9515;50.810;4.418;2023-01-15T17:23:25;8.00;99.90
18773;DHT22;9515;50.810;4.418;2023-01-15T17:25:54;8.10;99.90
18773;DHT22;9515;50.810;4.418;2023-01-15T17:28:20;8.20;99.90
18773;DHT22;9515;50.810;4.418;2023-01-15T17:30:52;7.90;99.90
18773;DHT22;9515;50.810;4.418;2023-01-15T17:33:21;7.80;99.90
18773;DHT22;9515;50.810;4.418;2023-01-15T17:35:47;7.50;99.90
18773;DHT22;9515;50.810;4.418;2023-01-15T17:38:16;7.50;99.90
18773;DHT22;9515;50.810;4.418;2023-01-15T17:40:42;7.50;99.90
18773;DHT22;9515;50.810;4.418;2023-01-15T17:43:13;7.30;99.90
18773;DHT22;9515;50.810;4.418;2023-01-15T17:45:40;7.10;99.90
18773;DHT22;9515;50.810;4.418;2023-01-15T17:48:06;7.00;99.90
18773;DHT22;9515;50.810;4.418;2023-01-15T17:50:36;6.90;99.90
18773;DHT22;9515;50.810;4.418;2023-01-15T17:53:03;6.90;99.90
18773;DHT22;9515;50.810;4.418;2023-01-15T17:55:29;7.10;99.90
18773;DHT22;9515;50.810;4.418;2023-01-15T17:58:14;7.10;99.90
18773;DHT22;9515;50.810;4.418;2023-01-15T18:01:00;7.20;99.90
18773;DHT22;9515;50.810;4.418;2023-01-15T18:03:49;7.10;99.90
18773;DHT22;9515;50.810;4.418;2023-01-15T18:06:35;7.40;99.90
18773;DHT22;9515;50.810;4.418;2023-01-15T18:09:04;7.30;99.90
18773;DHT22;9515;50.810;4.418;2023-01-15T18:11:31;7.30;99.90
18773;DHT22;9515;50.810;4.418;2023-01-15T18:13:57;7.40;99.90
18773;DHT22;9515;50.810;4.418;2023-01-15T18:16:23;7.50;99.90
18773;DHT22;9515;50.810;4.418;2023-01-15T18:18:52;7.60;99.90
18773;DHT22;9515;50.810;4.418;2023-01-15T18:21:18;7.80;99.90
18773;DHT22;9515;50.810;4.418;2023-01-15T18:23:44;7.60;99.90
18773;DHT22;9515;50.810;4.418;2023-01-15T18:26:09;7.60;99.90
18773;DHT22;9515;50.810;4.418;2023-01-15T18:28:36;7.60;99.90
18773;DHT22;9515;50.810;4.418;2023-01-15T18:31:04;7.90;99.90
18773;DHT22;9515;50.810;4.418;2023-01-15T18:33:30;7.80;99.90
18773;DHT22;9515;50.810;4.418;2023-01-15T18:36:09;7.70;99.90
18773;DHT22;9515;50.810;4.418;2023-01-15T18:38:36;7.60;99.90
18773;DHT22;9515;50.810;4.418;2023-01-15T18:41:11;7.60;99.90
18773;DHT22;9515;50.810;4.418;2023-01-15T18:43:37;7.60;99.90
18773;DHT22;9515;50.810;4.418;2023-01-15T18:46:22;7.70;99.90
18773;DHT22;9515;50.810;4.418;2023-01-15T18:49:06;7.70;99.90
18773;DHT22;9515;50.810;4.418;2023-01-15T18:51:32;7.70;99.90
18773;DHT22;9515;50.810;4.418;2023-01-15T18:53:57;7.60;99.90
18773;DHT22;9515;50.810;4.418;2023-01-15T18:56:23;7.40;99.90
18773;DHT22;9515;50.810;4.418;2023-01-15T18:59:12;7.20;99.90
18773;DHT22;9515;50.810;4.418;2023-01-15T19:01:39;7.20;99.90
18773;DHT22;9515;50.810;4.418;2023-01-15T19:04:05;7.20;99.90
18773;DHT22;9515;50.810;4.418;2023-01-15T19:06:32;7.20;99.90
18773;DHT22;9515;50.810;4.418;2023-01-15T19:08:59;7.10;99.90
18773;DHT22;9515;50.810;4.418;2023-01-15T19:11:26;7.10;99.90
18773;DHT22;9515;50.810;4.418;2023-01-15T19:13:52;7.20;99.90
18773;DHT22;9515;50.810;4.418;2023-01-15T19:16:37;7.20;99.90
18773;DHT22;9515;50.810;4.418;2023-01-15T19:19:20;7.00;99.90
18773;DHT22;9515;50.810;4.418;2023-01-15T19:21:46;6.90;99.90
18773;DHT22;9515;50.810;4.418;2023-01-15T19:24:33;6.70;99.90
18773;DHT22;9515;50.810;4.418;2023-01-15T19:26:59;6.70;99.90
18773;DHT22;9515;50.810;4.418;2023-01-15T19:29:24;6.90;99.90
18773;DHT22;9515;50.810;4.418;2023-01-15T19:31:50;6.80;99.90
18773;DHT22;9515;50.810;4.418;2023-01-15T19:34:16;6.80;99.90
18773;DHT22;9515;50.810;4.418;2023-01-15T19:36:43;6.80;99.90
18773;DHT22;9515;50.810;4.418;2023-01-15T19:39:08;7.00;99.90
18773;DHT22;9515;50.810;4.418;2023-01-15T19:41:34;7.20;99.90
18773;DHT22;9515;50.810;4.418;2023-01-15T19:44:18;7.10;99.90
18773;DHT22;9515;50.810;4.418;2023-01-15T19:47:02;6.90;99.90
18773;DHT22;9515;50.810;4.418;2023-01-15T19:49:47;7.00;99.90
18773;DHT22;9515;50.810;4.418;2023-01-15T19:52:31;7.10;99.90
18773;DHT22;9515;50.810;4.418;2023-01-15T19:55:00;7.20;99.90
18773;DHT22;9515;50.810;4.418;2023-01-15T19:57:29;7.30;99.90
18773;DHT22;9515;50.810;4.418;2023-01-15T19:59:55;7.30;99.90
18773;DHT22;9515;50.810;4.418;2023-01-15T20:02:21;7.50;99.90
18773;DHT22;9515;50.810;4.418;2023-01-15T20:04:47;7.50;99.90
18773;DHT22;9515;50.810;4.418;2023-01-15T20:07:13;7.50;99.90
18773;DHT22;9515;50.810;4.418;2023-01-15T20:09:40;7.50;99.90
18773;DHT22;9515;50.810;4.418;2023-01-15T20:12:05;7.50;99.90
18773;DHT22;9515;50.810;4.418;2023-01-15T20:14:50;7.50;99.90
18773;DHT22;9515;50.810;4.418;2023-01-15T20:17:19;7.50;99.90
18773;DHT22;9515;50.810;4.418;2023-01-15T20:19:46;7.60;99.90
18773;DHT22;9515;50.810;4.418;2023-01-15T20:22:15;7.60;99.90
18773;DHT22;9515;50.810;4.418;2023-01-15T20:24:42;7.60;99.90
18773;DHT22;9515;50.810;4.418;2023-01-15T20:27:12;7.40;99.90
18773;DHT22;9515;50.810;4.418;2023-01-15T20:29:38;7.20;99.90
18773;DHT22;9515;50.810;4.418;2023-01-15T20:32:07;7.00;99.90
18773;DHT22;9515;50.810;4.418;2023-01-15T20:34:33;7.00;99.90
18773;DHT22;9515;50.810;4.418;2023-01-15T20:37:04;7.00;99.90
18773;DHT22;9515;50.810;4.418;2023-01-15T20:39:30;6.90;99.90
18773;DHT22;9515;50.810;4.418;2023-01-15T20:41:58;6.60;99.90
18773;DHT22;9515;50.810;4.418;2023-01-15T20:44:43;6.40;99.90
18773;DHT22;9515;50.810;4.418;2023-01-15T20:47:18;6.40;99.90
18773;DHT22;9515;50.810;4.418;2023-01-15T20:50:02;6.40;99.90
18773;DHT22;9515;50.810;4.418;2023-01-15T20:52:28;6.40;99.90
18773;DHT22;9515;50.810;4.418;2023-01-15T20:54:53;6.50;99.90
18773;DHT22;9515;50.810;4.418;2023-01-15T20:57:19;6.50;99.90
18773;DHT22;9515;50.810;4.418;2023-01-15T20:59:45;6.50;99.90
18773;DHT22;9515;50.810;4.418;2023-01-15T21:02:10;6.60;99.90
18773;DHT22;9515;50.810;4.418;2023-01-15T21:04:36;6.60;99.90
18773;DHT22;9515;50.810;4.418;2023-01-15T21:07:02;6.60;99.90
18773;DHT22;9515;50.810;4.418;2023-01-15T21:09:28;6.70;99.90
18773;DHT22;9515;50.810;4.418;2023-01-15T21:11:54;6.70;99.90
18773;DHT22;9515;50.810;4.418;2023-01-15T21:14:19;6.80;99.90
18773;DHT22;9515;50.810;4.418;2023-01-15T21:16:45;6.90;99.90
18773;DHT22;9515;50.810;4.418;2023-01-15T21:19:11;6.80;99.90
18773;DHT22;9515;50.810;4.418;2023-01-15T21:21:36;6.80;99.90
18773;DHT22;9515;50.810;4.418;2023-01-15T21:24:03;6.70;99.90
18773;DHT22;9515;50.810;4.418;2023-01-15T21:26:28;6.70;99.90
18773;DHT22;9515;50.810;4.418;2023-01-15T21:28:55;6.80;99.90
18773;DHT22;9515;50.810;4.418;2023-01-15T21:31:21;6.80;99.90
18773;DHT22;9515;50.810;4.418;2023-01-15T21:33:47;6.70;99.90
18773;DHT22;9515;50.810;4.418;2023-01-15T21:36:13;6.70;99.90
18773;DHT22;9515;50.810;4.418;2023-01-15T21:38:40;6.80;99.90
18773;DHT22;9515;50.810;4.418;2023-01-15T21:41:13;6.80;99.90
18773;DHT22;9515;50.810;4.418;2023-01-15T21:43:40;6.70;99.90
18773;DHT22;9515;50.810;4.418;2023-01-15T21:46:24;6.80;99.90
18773;DHT22;9515;50.810;4.418;2023-01-15T21:48:57;6.80;99.90
18773;DHT22;9515;50.810;4.418;2023-01-15T21:51:24;6.80;99.90
18773;DHT22;9515;50.810;4.418;2023-01-15T21:53:51;6.80;99.90
18773;DHT22;9515;50.810;4.418;2023-01-15T21:56:16;7.00;99.90
18773;DHT22;9515;50.810;4.418;2023-01-15T21:58:42;7.00;99.90
18773;DHT22;9515;50.810;4.418;2023-01-15T22:01:09;7.10;99.90
18773;DHT22;9515;50.810;4.418;2023-01-15T22:03:35;7.00;99.90
18773;DHT22;9515;50.810;4.418;2023-01-15T22:06:06;7.00;99.90
18773;DHT22;9515;50.810;4.418;2023-01-15T22:08:32;6.80;99.90
18773;DHT22;9515;50.810;4.418;2023-01-15T22:11:05;6.70;99.90
18773;DHT22;9515;50.810;4.418;2023-01-15T22:13:32;6.80;99.90
18773;DHT22;9515;50.810;4.418;2023-01-15T22:15:58;6.80;99.90
18773;DHT22;9515;50.810;4.418;2023-01-15T22:18:31;6.70;99.90
18773;DHT22;9515;50.810;4.418;2023-01-15T22:21:02;6.70;99.90
18773;DHT22;9515;50.810;4.418;2023-01-15T22:23:28;6.70;99.90
18773;DHT22;9515;50.810;4.418;2023-01-15T22:25:54;6.60;99.90
18773;DHT22;9515;50.810;4.418;2023-01-15T22:28:20;6.70;99.90
18773;DHT22;9515;50.810;4.418;2023-01-15T22:30:46;6.70;99.90
18773;DHT22;9515;50.810;4.418;2023-01-15T22:33:12;6.90;99.90
18773;DHT22;9515;50.810;4.418;2023-01-15T22:35:38;6.90;99.90
18773;DHT22;9515;50.810;4.418;2023-01-15T22:38:04;6.90;99.90
18773;DHT22;9515;50.810;4.418;2023-01-15T22:40:30;6.90;99.90
18773;DHT22;9515;50.810;4.418;2023-01-15T22:42:55;6.90;99.90
18773;DHT22;9515;50.810;4.418;2023-01-15T22:45:22;6.80;99.90
18773;DHT22;9515;50.810;4.418;2023-01-15T22:47:48;6.90;99.90
18773;DHT22;9515;50.810;4.418;2023-01-15T22:50:13;6.80;99.90
18773;DHT22;9515;50.810;4.418;2023-01-15T22:52:39;6.80;99.90
18773;DHT22;9515;50.810;4.418;2023-01-15T22:55:06;6.80;99.90
18773;DHT22;9515;50.810;4.418;2023-01-15T22:57:32;6.70;99.90
18773;DHT22;9515;50.810;4.418;2023-01-15T22:59:58;6.90;99.90
18773;DHT22;9515;50.810;4.418;2023-01-15T23:02:23;7.00;99.90
18773;DHT22;9515;50.810;4.418;2023-01-15T23:05:12;7.00;99.90
18773;DHT22;9515;50.810;4.418;2023-01-15T23:07:38;6.90;99.90
18773;DHT22;9515;50.810;4.418;2023-01-15T23:10:05;6.80;99.90
18773;DHT22;9515;50.810;4.418;2023-01-15T23:12:31;6.60;99.90
18773;DHT22;9515;50.810;4.418;2023-01-15T23:14:57;6.80;99.90
18773;DHT22;9515;50.810;4.418;2023-01-15T23:17:23;6.80;99.90
18773;DHT22;9515;50.810;4.418;2023-01-15T23:19:49;6.80;99.90
18773;DHT22;9515;50.810;4.418;2023-01-15T23:22:14;6.70;99.90
18773;DHT22;9515;50.810;4.418;2023-01-15T23:24:40;6.60;99.90
18773;DHT22;9515;50.810;4.418;2023-01-15T23:27:06;6.60;99.90
18773;DHT22;9515;50.810;4.418;2023-01-15T23:29:31;6.50;99.90
18773;DHT22;9515;50.810;4.418;2023-01-15T23:31:58;6.60;99.90
18773;DHT22;9515;50.810;4.418;2023-01-15T23:34:24;6.70;99.90
18773;DHT22;9515;50.810;4.418;2023-01-15T23:36:50;6.40;99.90
18773;DHT22;9515;50.810;4.418;2023-01-15T23:39:15;6.40;99.90
18773;DHT22;9515;50.810;4.418;2023-01-15T23:41:41;6.60;99.90
18773;DHT22;9515;50.810;4.418;2023-01-15T23:44:25;6.40;99.90
18773;DHT22;9515;50.810;4.418;2023-01-15T23:47:09;6.30;99.90
18773;DHT22;9515;50.810;4.418;2023-01-15T23:49:35;6.30;99.90
18773;DHT22;9515;50.810;4.418;2023-01-15T23:52:01;6.30;99.90
18773;DHT22;9515;50.810;4.418;2023-01-15T23:54:27;6.20;99.90
18773;DHT22;9515;50.810;4.418;2023-01-15T23:56:59;6.20;99.90
18773;DHT22;9515;50.810;4.418;2023-01-15T23:59:26;6.30;99.90
